sensor_id;sensor_type;location;lat;lon;timestamp;P1;durP1;ratioP1;P2;durP2;ratioP2
20462;SDS011;10390;53.566;9.980;2023-02-19T00:01:19;8.35;;;3.85;;
20462;SDS011;10390;53.566;9.980;2023-02-19T00:03:50;7.20;;;3.67;;
20462;SDS011;10390;53.566;9.980;2023-02-19T00:06:18;8.70;;;3.92;;
20462;SDS011;10390;53.566;9.980;2023-02-19T00:08:44;6.18;;;3.63;;
20462;SDS011;10390;53.566;9.980;2023-02-19T00:11:11;5.68;;;3.28;;
20462;SDS011;10390;53.566;9.980;2023-02-19T00:13:39;7.82;;;3.53;;
20462;SDS011;10390;53.566;9.980;2023-02-19T00:18:37;7.28;;;3.67;;
20462;SDS011;10390;53.566;9.980;2023-02-19T00:21:03;7.10;;;3.55;;
20462;SDS011;10390;53.566;9.980;2023-02-19T00:23:29;5.47;;;3.25;;
20462;SDS011;10390;53.566;9.980;2023-02-19T00:25:55;7.20;;;3.58;;
20462;SDS011;10390;53.566;9.980;2023-02-19T00:28:21;7.50;;;4.05;;
20462;SDS011;10390;53.566;9.980;2023-02-19T00:30:47;7.75;;;3.88;;
20462;SDS011;10390;53.566;9.980;2023-02-19T00:33:12;7.10;;;3.25;;
20462;SDS011;10390;53.566;9.980;2023-02-19T00:35:39;6.82;;;3.50;;
20462;SDS011;10390;53.566;9.980;2023-02-19T00:38:05;6.63;;;3.40;;
20462;SDS011;10390;53.566;9.980;2023-02-19T00:40:30;7.63;;;3.30;;
20462;SDS011;10390;53.566;9.980;2023-02-19T00:42:56;6.75;;;3.78;;
20462;SDS011;10390;53.566;9.980;2023-02-19T00:45:22;8.30;;;3.20;;
20462;SDS011;10390;53.566;9.980;2023-02-19T00:47:48;6.90;;;3.30;;
20462;SDS011;10390;53.566;9.980;2023-02-19T00:50:13;5.65;;;3.03;;
20462;SDS011;10390;53.566;9.980;2023-02-19T00:52:39;6.57;;;3.78;;
20462;SDS011;10390;53.566;9.980;2023-02-19T00:55:05;5.53;;;3.05;;
20462;SDS011;10390;53.566;9.980;2023-02-19T00:57:31;8.70;;;4.10;;
20462;SDS011;10390;53.566;9.980;2023-02-19T00:59:56;5.20;;;3.10;;
20462;SDS011;10390;53.566;9.980;2023-02-19T01:02:22;6.07;;;3.47;;
20462;SDS011;10390;53.566;9.980;2023-02-19T01:04:47;7.00;;;3.67;;
20462;SDS011;10390;53.566;9.980;2023-02-19T01:07:13;5.60;;;3.28;;
20462;SDS011;10390;53.566;9.980;2023-02-19T01:09:39;6.57;;;3.58;;
20462;SDS011;10390;53.566;9.980;2023-02-19T01:12:04;5.00;;;3.20;;
20462;SDS011;10390;53.566;9.980;2023-02-19T01:14:30;5.45;;;3.17;;
20462;SDS011;10390;53.566;9.980;2023-02-19T01:16:56;5.03;;;3.10;;
20462;SDS011;10390;53.566;9.980;2023-02-19T01:19:22;5.85;;;3.30;;
20462;SDS011;10390;53.566;9.980;2023-02-19T01:21:47;6.10;;;3.50;;
20462;SDS011;10390;53.566;9.980;2023-02-19T01:24:13;4.95;;;3.10;;
20462;SDS011;10390;53.566;9.980;2023-02-19T01:26:40;5.75;;;3.35;;
20462;SDS011;10390;53.566;9.980;2023-02-19T01:29:07;5.00;;;3.15;;
20462;SDS011;10390;53.566;9.980;2023-02-19T01:31:33;6.20;;;3.60;;
20462;SDS011;10390;53.566;9.980;2023-02-19T01:33:59;7.25;;;3.10;;
20462;SDS011;10390;53.566;9.980;2023-02-19T01:36:27;6.47;;;3.35;;
20462;SDS011;10390;53.566;9.980;2023-02-19T01:38:54;6.75;;;3.47;;
20462;SDS011;10390;53.566;9.980;2023-02-19T01:41:21;6.57;;;3.72;;
20462;SDS011;10390;53.566;9.980;2023-02-19T01:46:37;6.90;;;3.70;;
20462;SDS011;10390;53.566;9.980;2023-02-19T01:51:51;6.40;;;4.00;;
20462;SDS011;10390;53.566;9.980;2023-02-19T01:54:25;6.05;;;3.47;;
20462;SDS011;10390;53.566;9.980;2023-02-19T01:56:54;6.28;;;3.60;;
20462;SDS011;10390;53.566;9.980;2023-02-19T01:59:21;5.20;;;3.47;;
20462;SDS011;10390;53.566;9.980;2023-02-19T02:01:47;5.78;;;3.42;;
20462;SDS011;10390;53.566;9.980;2023-02-19T02:04:13;6.07;;;3.53;;
20462;SDS011;10390;53.566;9.980;2023-02-19T02:06:43;5.38;;;3.40;;
20462;SDS011;10390;53.566;9.980;2023-02-19T02:09:13;5.43;;;3.60;;
20462;SDS011;10390;53.566;9.980;2023-02-19T02:11:57;5.10;;;2.90;;
20462;SDS011;10390;53.566;9.980;2023-02-19T02:14:24;5.75;;;3.33;;
20462;SDS011;10390;53.566;9.980;2023-02-19T02:30:43;5.00;;;2.92;;
20462;SDS011;10390;53.566;9.980;2023-02-19T02:35:55;6.35;;;3.15;;
20462;SDS011;10390;53.566;9.980;2023-02-19T02:38:26;6.70;;;3.08;;
20462;SDS011;10390;53.566;9.980;2023-02-19T02:40:56;4.20;;;2.70;;
20462;SDS011;10390;53.566;9.980;2023-02-19T02:43:23;5.47;;;2.85;;
20462;SDS011;10390;53.566;9.980;2023-02-19T02:45:49;5.53;;;3.35;;
20462;SDS011;10390;53.566;9.980;2023-02-19T02:53:39;6.15;;;3.38;;
20462;SDS011;10390;53.566;9.980;2023-02-19T02:56:27;6.13;;;3.33;;
20462;SDS011;10390;53.566;9.980;2023-02-19T02:58:55;5.88;;;3.47;;
20462;SDS011;10390;53.566;9.980;2023-02-19T03:01:23;5.40;;;3.10;;
20462;SDS011;10390;53.566;9.980;2023-02-19T03:04:26;5.03;;;3.38;;
20462;SDS011;10390;53.566;9.980;2023-02-19T03:07:35;5.95;;;3.20;;
20462;SDS011;10390;53.566;9.980;2023-02-19T03:10:12;6.57;;;3.30;;
20462;SDS011;10390;53.566;9.980;2023-02-19T03:12:42;5.95;;;3.40;;
20462;SDS011;10390;53.566;9.980;2023-02-19T03:15:30;4.88;;;2.95;;
20462;SDS011;10390;53.566;9.980;2023-02-19T03:18:19;5.55;;;3.38;;
20462;SDS011;10390;53.566;9.980;2023-02-19T03:21:05;5.03;;;2.80;;
20462;SDS011;10390;53.566;9.980;2023-02-19T03:23:32;5.90;;;3.20;;
20462;SDS011;10390;53.566;9.980;2023-02-19T03:26:18;5.05;;;3.08;;
20462;SDS011;10390;53.566;9.980;2023-02-19T03:28:46;5.13;;;3.22;;
20462;SDS011;10390;53.566;9.980;2023-02-19T03:31:32;6.68;;;3.20;;
20462;SDS011;10390;53.566;9.980;2023-02-19T03:33:59;5.22;;;2.95;;
20462;SDS011;10390;53.566;9.980;2023-02-19T03:36:39;4.97;;;2.70;;
20462;SDS011;10390;53.566;9.980;2023-02-19T03:39:10;5.05;;;2.90;;
20462;SDS011;10390;53.566;9.980;2023-02-19T03:55:05;5.60;;;2.90;;
20462;SDS011;10390;53.566;9.980;2023-02-19T04:03:27;4.63;;;2.88;;
20462;SDS011;10390;53.566;9.980;2023-02-19T04:06:06;6.05;;;3.25;;
20462;SDS011;10390;53.566;9.980;2023-02-19T04:08:51;5.32;;;2.97;;
20462;SDS011;10390;53.566;9.980;2023-02-19T04:11:20;4.70;;;3.13;;
20462;SDS011;10390;53.566;9.980;2023-02-19T04:13:54;5.50;;;3.28;;
20462;SDS011;10390;53.566;9.980;2023-02-19T04:16:29;5.70;;;3.10;;
20462;SDS011;10390;53.566;9.980;2023-02-19T04:19:01;5.20;;;3.00;;
20462;SDS011;10390;53.566;9.980;2023-02-19T04:21:31;5.85;;;2.90;;
20462;SDS011;10390;53.566;9.980;2023-02-19T04:23:59;4.63;;;3.13;;
20462;SDS011;10390;53.566;9.980;2023-02-19T04:26:30;4.47;;;2.85;;
20462;SDS011;10390;53.566;9.980;2023-02-19T04:28:57;5.32;;;3.28;;
20462;SDS011;10390;53.566;9.980;2023-02-19T04:31:23;4.85;;;3.00;;
20462;SDS011;10390;53.566;9.980;2023-02-19T04:33:51;5.22;;;3.10;;
20462;SDS011;10390;53.566;9.980;2023-02-19T04:36:16;6.28;;;3.17;;
20462;SDS011;10390;53.566;9.980;2023-02-19T04:38:42;4.30;;;3.00;;
20462;SDS011;10390;53.566;9.980;2023-02-19T04:41:08;5.43;;;2.88;;
20462;SDS011;10390;53.566;9.980;2023-02-19T04:43:34;4.85;;;3.13;;
20462;SDS011;10390;53.566;9.980;2023-02-19T04:46:00;5.47;;;3.00;;
20462;SDS011;10390;53.566;9.980;2023-02-19T04:48:25;5.10;;;3.10;;
20462;SDS011;10390;53.566;9.980;2023-02-19T04:50:51;4.90;;;3.00;;
20462;SDS011;10390;53.566;9.980;2023-02-19T04:53:17;5.43;;;3.10;;
20462;SDS011;10390;53.566;9.980;2023-02-19T04:55:43;7.25;;;3.28;;
20462;SDS011;10390;53.566;9.980;2023-02-19T04:58:08;4.28;;;2.95;;
20462;SDS011;10390;53.566;9.980;2023-02-19T05:00:34;4.78;;;2.90;;
20462;SDS011;10390;53.566;9.980;2023-02-19T05:02:59;5.85;;;3.03;;
20462;SDS011;10390;53.566;9.980;2023-02-19T05:05:25;4.57;;;3.00;;
20462;SDS011;10390;53.566;9.980;2023-02-19T05:07:51;4.50;;;2.72;;
20462;SDS011;10390;53.566;9.980;2023-02-19T05:10:17;5.38;;;3.22;;
20462;SDS011;10390;53.566;9.980;2023-02-19T05:12:43;4.65;;;2.85;;
20462;SDS011;10390;53.566;9.980;2023-02-19T05:15:08;4.65;;;2.75;;
20462;SDS011;10390;53.566;9.980;2023-02-19T05:17:34;4.97;;;2.72;;
20462;SDS011;10390;53.566;9.980;2023-02-19T05:19:59;5.30;;;2.70;;
20462;SDS011;10390;53.566;9.980;2023-02-19T05:22:26;4.93;;;2.78;;
20462;SDS011;10390;53.566;9.980;2023-02-19T05:24:53;5.75;;;2.75;;
20462;SDS011;10390;53.566;9.980;2023-02-19T05:27:19;6.22;;;3.10;;
20462;SDS011;10390;53.566;9.980;2023-02-19T05:29:44;4.50;;;2.90;;
20462;SDS011;10390;53.566;9.980;2023-02-19T05:32:10;5.10;;;2.90;;
20462;SDS011;10390;53.566;9.980;2023-02-19T05:34:35;5.15;;;3.28;;
20462;SDS011;10390;53.566;9.980;2023-02-19T05:37:01;5.72;;;3.10;;
20462;SDS011;10390;53.566;9.980;2023-02-19T05:39:27;6.03;;;3.03;;
20462;SDS011;10390;53.566;9.980;2023-02-19T05:41:52;4.30;;;2.60;;
20462;SDS011;10390;53.566;9.980;2023-02-19T05:44:18;5.20;;;2.92;;
20462;SDS011;10390;53.566;9.980;2023-02-19T05:46:44;5.07;;;2.92;;
20462;SDS011;10390;53.566;9.980;2023-02-19T05:49:09;4.25;;;2.58;;
20462;SDS011;10390;53.566;9.980;2023-02-19T05:51:35;5.35;;;2.83;;
20462;SDS011;10390;53.566;9.980;2023-02-19T05:54:00;8.05;;;3.22;;
20462;SDS011;10390;53.566;9.980;2023-02-19T05:56:36;5.22;;;2.85;;
20462;SDS011;10390;53.566;9.980;2023-02-19T05:59:09;4.35;;;2.40;;
20462;SDS011;10390;53.566;9.980;2023-02-19T06:01:38;4.20;;;2.40;;
20462;SDS011;10390;53.566;9.980;2023-02-19T06:04:04;4.50;;;2.50;;
20462;SDS011;10390;53.566;9.980;2023-02-19T06:06:29;5.32;;;2.50;;
20462;SDS011;10390;53.566;9.980;2023-02-19T06:08:55;5.50;;;2.70;;
20462;SDS011;10390;53.566;9.980;2023-02-19T06:11:21;4.07;;;2.55;;
20462;SDS011;10390;53.566;9.980;2023-02-19T06:13:47;4.43;;;2.80;;
20462;SDS011;10390;53.566;9.980;2023-02-19T06:16:14;4.30;;;2.67;;
20462;SDS011;10390;53.566;9.980;2023-02-19T06:18:41;4.25;;;2.30;;
20462;SDS011;10390;53.566;9.980;2023-02-19T06:21:08;4.05;;;2.15;;
20462;SDS011;10390;53.566;9.980;2023-02-19T06:23:35;4.93;;;2.58;;
20462;SDS011;10390;53.566;9.980;2023-02-19T06:26:10;4.78;;;2.38;;
20462;SDS011;10390;53.566;9.980;2023-02-19T06:28:44;6.82;;;2.53;;
20462;SDS011;10390;53.566;9.980;2023-02-19T06:31:11;4.40;;;2.45;;
20462;SDS011;10390;53.566;9.980;2023-02-19T06:33:37;4.53;;;2.50;;
20462;SDS011;10390;53.566;9.980;2023-02-19T06:36:05;4.72;;;2.50;;
20462;SDS011;10390;53.566;9.980;2023-02-19T06:38:34;3.85;;;2.67;;
20462;SDS011;10390;53.566;9.980;2023-02-19T06:41:00;5.25;;;2.50;;
20462;SDS011;10390;53.566;9.980;2023-02-19T06:43:28;6.00;;;2.67;;
20462;SDS011;10390;53.566;9.980;2023-02-19T06:45:56;4.45;;;2.50;;
20462;SDS011;10390;53.566;9.980;2023-02-19T06:48:26;4.35;;;2.30;;
20462;SDS011;10390;53.566;9.980;2023-02-19T06:50:53;4.25;;;2.50;;
20462;SDS011;10390;53.566;9.980;2023-02-19T06:53:19;5.57;;;2.60;;
20462;SDS011;10390;53.566;9.980;2023-02-19T06:55:58;3.72;;;2.05;;
20462;SDS011;10390;53.566;9.980;2023-02-19T06:58:24;3.63;;;2.20;;
20462;SDS011;10390;53.566;9.980;2023-02-19T07:00:51;4.28;;;2.45;;
20462;SDS011;10390;53.566;9.980;2023-02-19T07:03:17;3.88;;;2.40;;
20462;SDS011;10390;53.566;9.980;2023-02-19T07:05:42;4.40;;;2.15;;
20462;SDS011;10390;53.566;9.980;2023-02-19T07:08:08;4.95;;;2.25;;
20462;SDS011;10390;53.566;9.980;2023-02-19T07:10:34;7.40;;;2.05;;
20462;SDS011;10390;53.566;9.980;2023-02-19T07:12:59;4.38;;;2.22;;
20462;SDS011;10390;53.566;9.980;2023-02-19T07:15:25;4.35;;;2.20;;
20462;SDS011;10390;53.566;9.980;2023-02-19T07:17:50;4.28;;;2.13;;
20462;SDS011;10390;53.566;9.980;2023-02-19T07:20:16;4.55;;;2.13;;
20462;SDS011;10390;53.566;9.980;2023-02-19T07:22:42;4.05;;;2.13;;
20462;SDS011;10390;53.566;9.980;2023-02-19T07:25:07;3.85;;;2.15;;
20462;SDS011;10390;53.566;9.980;2023-02-19T07:27:33;4.07;;;2.30;;
20462;SDS011;10390;53.566;9.980;2023-02-19T07:29:58;4.25;;;2.13;;
20462;SDS011;10390;53.566;9.980;2023-02-19T07:32:24;3.78;;;1.98;;
20462;SDS011;10390;53.566;9.980;2023-02-19T07:34:50;3.40;;;2.00;;
20462;SDS011;10390;53.566;9.980;2023-02-19T07:37:15;3.95;;;2.05;;
20462;SDS011;10390;53.566;9.980;2023-02-19T07:39:41;3.72;;;2.00;;
20462;SDS011;10390;53.566;9.980;2023-02-19T07:42:06;6.50;;;2.42;;
20462;SDS011;10390;53.566;9.980;2023-02-19T07:44:32;4.13;;;2.08;;
20462;SDS011;10390;53.566;9.980;2023-02-19T07:46:58;4.43;;;2.38;;
20462;SDS011;10390;53.566;9.980;2023-02-19T07:49:23;5.93;;;2.30;;
20462;SDS011;10390;53.566;9.980;2023-02-19T07:51:49;4.45;;;2.20;;
20462;SDS011;10390;53.566;9.980;2023-02-19T07:54:15;4.82;;;2.13;;
20462;SDS011;10390;53.566;9.980;2023-02-19T07:56:40;6.07;;;2.70;;
20462;SDS011;10390;53.566;9.980;2023-02-19T07:59:06;3.90;;;2.17;;
20462;SDS011;10390;53.566;9.980;2023-02-19T08:01:31;4.70;;;2.28;;
20462;SDS011;10390;53.566;9.980;2023-02-19T08:04:16;5.60;;;2.38;;
20462;SDS011;10390;53.566;9.980;2023-02-19T08:06:41;5.00;;;2.10;;
20462;SDS011;10390;53.566;9.980;2023-02-19T08:09:07;4.28;;;2.28;;
20462;SDS011;10390;53.566;9.980;2023-02-19T08:11:33;5.45;;;2.58;;
20462;SDS011;10390;53.566;9.980;2023-02-19T08:14:17;4.30;;;2.17;;
20462;SDS011;10390;53.566;9.980;2023-02-19T08:16:47;3.85;;;2.15;;
20462;SDS011;10390;53.566;9.980;2023-02-19T08:19:16;4.53;;;2.60;;
20462;SDS011;10390;53.566;9.980;2023-02-19T08:21:42;6.55;;;2.58;;
20462;SDS011;10390;53.566;9.980;2023-02-19T08:24:07;6.75;;;2.45;;
20462;SDS011;10390;53.566;9.980;2023-02-19T08:26:33;4.75;;;2.67;;
20462;SDS011;10390;53.566;9.980;2023-02-19T08:28:59;5.82;;;2.63;;
20462;SDS011;10390;53.566;9.980;2023-02-19T08:31:25;6.78;;;2.70;;
20462;SDS011;10390;53.566;9.980;2023-02-19T08:33:51;6.00;;;2.45;;
20462;SDS011;10390;53.566;9.980;2023-02-19T08:36:17;5.97;;;2.70;;
20462;SDS011;10390;53.566;9.980;2023-02-19T08:38:42;5.13;;;2.72;;
20462;SDS011;10390;53.566;9.980;2023-02-19T08:41:11;6.93;;;3.10;;
20462;SDS011;10390;53.566;9.980;2023-02-19T08:43:38;5.97;;;2.70;;
20462;SDS011;10390;53.566;9.980;2023-02-19T08:46:05;7.40;;;2.70;;
20462;SDS011;10390;53.566;9.980;2023-02-19T08:48:34;5.88;;;2.83;;
20462;SDS011;10390;53.566;9.980;2023-02-19T08:51:00;5.97;;;2.70;;
20462;SDS011;10390;53.566;9.980;2023-02-19T08:53:28;7.25;;;3.05;;
20462;SDS011;10390;53.566;9.980;2023-02-19T08:55:55;4.80;;;3.10;;
20462;SDS011;10390;53.566;9.980;2023-02-19T08:58:20;4.60;;;2.50;;
20462;SDS011;10390;53.566;9.980;2023-02-19T09:00:47;9.15;;;2.75;;
20462;SDS011;10390;53.566;9.980;2023-02-19T09:03:13;6.68;;;3.00;;
20462;SDS011;10390;53.566;9.980;2023-02-19T09:05:38;7.28;;;3.33;;
20462;SDS011;10390;53.566;9.980;2023-02-19T09:08:04;4.88;;;2.90;;
20462;SDS011;10390;53.566;9.980;2023-02-19T09:10:30;5.60;;;2.88;;
20462;SDS011;10390;53.566;9.980;2023-02-19T09:12:56;5.70;;;2.40;;
20462;SDS011;10390;53.566;9.980;2023-02-19T09:15:21;8.23;;;3.20;;
20462;SDS011;10390;53.566;9.980;2023-02-19T09:17:53;7.00;;;3.03;;
20462;SDS011;10390;53.566;9.980;2023-02-19T09:20:19;4.93;;;2.72;;
20462;SDS011;10390;53.566;9.980;2023-02-19T09:22:44;5.15;;;2.95;;
20462;SDS011;10390;53.566;9.980;2023-02-19T09:25:10;8.07;;;2.80;;
20462;SDS011;10390;53.566;9.980;2023-02-19T09:27:36;8.85;;;3.40;;
20462;SDS011;10390;53.566;9.980;2023-02-19T09:30:02;4.50;;;2.40;;
20462;SDS011;10390;53.566;9.980;2023-02-19T09:32:31;5.35;;;2.90;;
20462;SDS011;10390;53.566;9.980;2023-02-19T09:34:57;4.53;;;2.40;;
20462;SDS011;10390;53.566;9.980;2023-02-19T09:37:26;7.55;;;2.70;;
20462;SDS011;10390;53.566;9.980;2023-02-19T09:39:52;4.40;;;2.40;;
20462;SDS011;10390;53.566;9.980;2023-02-19T09:42:28;4.78;;;2.60;;
20462;SDS011;10390;53.566;9.980;2023-02-19T09:44:57;5.93;;;2.75;;
20462;SDS011;10390;53.566;9.980;2023-02-19T09:47:28;6.97;;;2.80;;
20462;SDS011;10390;53.566;9.980;2023-02-19T09:49:58;6.57;;;2.55;;
20462;SDS011;10390;53.566;9.980;2023-02-19T09:55:41;6.78;;;2.50;;
20462;SDS011;10390;53.566;9.980;2023-02-19T09:58:07;6.43;;;2.70;;
20462;SDS011;10390;53.566;9.980;2023-02-19T10:00:56;6.25;;;2.67;;
20462;SDS011;10390;53.566;9.980;2023-02-19T10:03:32;5.97;;;2.90;;
20462;SDS011;10390;53.566;9.980;2023-02-19T10:06:00;7.43;;;2.83;;
20462;SDS011;10390;53.566;9.980;2023-02-19T10:08:32;7.38;;;2.90;;
20462;SDS011;10390;53.566;9.980;2023-02-19T10:11:03;9.13;;;2.85;;
20462;SDS011;10390;53.566;9.980;2023-02-19T10:16:00;8.18;;;2.60;;
20462;SDS011;10390;53.566;9.980;2023-02-19T10:18:30;7.43;;;3.05;;
20462;SDS011;10390;53.566;9.980;2023-02-19T10:21:06;11.32;;;3.30;;
20462;SDS011;10390;53.566;9.980;2023-02-19T10:23:33;9.68;;;3.60;;
20462;SDS011;10390;53.566;9.980;2023-02-19T10:25:59;12.20;;;3.13;;
20462;SDS011;10390;53.566;9.980;2023-02-19T10:28:28;11.57;;;3.10;;
20462;SDS011;10390;53.566;9.980;2023-02-19T10:30:58;11.45;;;3.75;;
20462;SDS011;10390;53.566;9.980;2023-02-19T10:33:25;11.80;;;3.97;;
20462;SDS011;10390;53.566;9.980;2023-02-19T10:38:44;9.55;;;3.50;;
20462;SDS011;10390;53.566;9.980;2023-02-19T10:41:15;12.70;;;3.65;;
20462;SDS011;10390;53.566;9.980;2023-02-19T10:46:40;9.68;;;3.67;;
20462;SDS011;10390;53.566;9.980;2023-02-19T10:51:58;10.32;;;3.72;;
20462;SDS011;10390;53.566;9.980;2023-02-19T10:54:27;7.10;;;3.35;;
20462;SDS011;10390;53.566;9.980;2023-02-19T10:59:40;10.35;;;3.17;;
20462;SDS011;10390;53.566;9.980;2023-02-19T11:02:15;13.10;;;4.13;;
20462;SDS011;10390;53.566;9.980;2023-02-19T11:04:46;11.27;;;3.75;;
20462;SDS011;10390;53.566;9.980;2023-02-19T11:07:53;13.50;;;3.83;;
20462;SDS011;10390;53.566;9.980;2023-02-19T11:10:22;14.82;;;3.92;;
20462;SDS011;10390;53.566;9.980;2023-02-19T11:12:49;11.40;;;3.55;;
20462;SDS011;10390;53.566;9.980;2023-02-19T11:17:55;10.02;;;3.60;;
20462;SDS011;10390;53.566;9.980;2023-02-19T11:20:38;9.88;;;3.13;;
20462;SDS011;10390;53.566;9.980;2023-02-19T11:23:36;12.27;;;3.58;;
20462;SDS011;10390;53.566;9.980;2023-02-19T11:26:16;9.10;;;4.28;;
20462;SDS011;10390;53.566;9.980;2023-02-19T11:28:45;21.55;;;4.18;;
20462;SDS011;10390;53.566;9.980;2023-02-19T11:31:21;12.98;;;3.97;;
20462;SDS011;10390;53.566;9.980;2023-02-19T11:34:12;10.48;;;4.03;;
20462;SDS011;10390;53.566;9.980;2023-02-19T11:37:06;10.18;;;4.47;;
20462;SDS011;10390;53.566;9.980;2023-02-19T11:39:32;12.10;;;4.25;;
20462;SDS011;10390;53.566;9.980;2023-02-19T11:42:13;17.63;;;4.15;;
20462;SDS011;10390;53.566;9.980;2023-02-19T11:44:53;12.30;;;3.88;;
20462;SDS011;10390;53.566;9.980;2023-02-19T11:53:31;12.55;;;4.05;;
20462;SDS011;10390;53.566;9.980;2023-02-19T11:59:00;14.50;;;3.90;;
20462;SDS011;10390;53.566;9.980;2023-02-19T12:01:37;12.43;;;4.57;;
20462;SDS011;10390;53.566;9.980;2023-02-19T12:10:25;11.07;;;4.03;;
20462;SDS011;10390;53.566;9.980;2023-02-19T12:13:10;16.35;;;4.15;;
20462;SDS011;10390;53.566;9.980;2023-02-19T12:21:46;17.98;;;4.70;;
20462;SDS011;10390;53.566;9.980;2023-02-19T12:27:16;12.82;;;4.93;;
20462;SDS011;10390;53.566;9.980;2023-02-19T12:38:57;14.20;;;4.32;;
20462;SDS011;10390;53.566;9.980;2023-02-19T12:44:39;13.13;;;5.10;;
20462;SDS011;10390;53.566;9.980;2023-02-19T12:47:18;16.63;;;4.78;;
20462;SDS011;10390;53.566;9.980;2023-02-19T12:49:47;14.25;;;4.75;;
20462;SDS011;10390;53.566;9.980;2023-02-19T12:52:24;12.45;;;4.75;;
20462;SDS011;10390;53.566;9.980;2023-02-19T12:54:53;8.48;;;3.90;;
20462;SDS011;10390;53.566;9.980;2023-02-19T12:57:23;13.98;;;4.38;;
20462;SDS011;10390;53.566;9.980;2023-02-19T13:00:00;9.38;;;4.75;;
20462;SDS011;10390;53.566;9.980;2023-02-19T13:02:39;11.32;;;4.90;;
20462;SDS011;10390;53.566;9.980;2023-02-19T13:05:14;12.18;;;5.25;;
20462;SDS011;10390;53.566;9.980;2023-02-19T13:13:19;10.40;;;4.40;;
20462;SDS011;10390;53.566;9.980;2023-02-19T13:15:55;12.35;;;4.97;;
20462;SDS011;10390;53.566;9.980;2023-02-19T13:18:27;14.40;;;5.10;;
20462;SDS011;10390;53.566;9.980;2023-02-19T13:20:58;16.58;;;4.90;;
20462;SDS011;10390;53.566;9.980;2023-02-19T13:34:47;19.63;;;5.97;;
20462;SDS011;10390;53.566;9.980;2023-02-19T13:37:31;20.00;;;5.85;;
20462;SDS011;10390;53.566;9.980;2023-02-19T13:39:59;21.75;;;5.15;;
20462;SDS011;10390;53.566;9.980;2023-02-19T13:42:31;16.30;;;5.40;;
20462;SDS011;10390;53.566;9.980;2023-02-19T13:44:58;20.67;;;5.68;;
20462;SDS011;10390;53.566;9.980;2023-02-19T13:50:16;23.45;;;6.45;;
20462;SDS011;10390;53.566;9.980;2023-02-19T13:52:47;20.27;;;6.38;;
20462;SDS011;10390;53.566;9.980;2023-02-19T14:01:11;17.13;;;5.65;;
20462;SDS011;10390;53.566;9.980;2023-02-19T14:06:04;16.35;;;5.00;;
20462;SDS011;10390;53.566;9.980;2023-02-19T14:08:50;15.63;;;5.55;;
20462;SDS011;10390;53.566;9.980;2023-02-19T14:17:02;18.88;;;4.85;;
20462;SDS011;10390;53.566;9.980;2023-02-19T14:19:48;19.85;;;5.13;;
20462;SDS011;10390;53.566;9.980;2023-02-19T14:30:38;24.60;;;5.55;;
20462;SDS011;10390;53.566;9.980;2023-02-19T14:33:26;22.67;;;6.22;;
20462;SDS011;10390;53.566;9.980;2023-02-19T14:35:59;18.85;;;5.70;;
20462;SDS011;10390;53.566;9.980;2023-02-19T14:38:45;18.40;;;5.10;;
20462;SDS011;10390;53.566;9.980;2023-02-19T14:41:14;17.77;;;5.10;;
20462;SDS011;10390;53.566;9.980;2023-02-19T14:43:42;12.82;;;4.75;;
20462;SDS011;10390;53.566;9.980;2023-02-19T14:49:27;13.57;;;4.90;;
20462;SDS011;10390;53.566;9.980;2023-02-19T14:52:02;16.30;;;5.40;;
20462;SDS011;10390;53.566;9.980;2023-02-19T14:57:05;17.83;;;5.47;;
20462;SDS011;10390;53.566;9.980;2023-02-19T14:59:56;19.48;;;5.32;;
20462;SDS011;10390;53.566;9.980;2023-02-19T15:02:24;17.05;;;5.15;;
20462;SDS011;10390;53.566;9.980;2023-02-19T15:04:52;15.15;;;4.80;;
20462;SDS011;10390;53.566;9.980;2023-02-19T15:07:19;11.65;;;4.43;;
20462;SDS011;10390;53.566;9.980;2023-02-19T15:09:48;16.58;;;5.55;;
20462;SDS011;10390;53.566;9.980;2023-02-19T15:12:17;16.38;;;4.63;;
20462;SDS011;10390;53.566;9.980;2023-02-19T15:14:46;21.67;;;5.60;;
20462;SDS011;10390;53.566;9.980;2023-02-19T15:17:15;15.65;;;5.15;;
20462;SDS011;10390;53.566;9.980;2023-02-19T15:19:53;25.55;;;5.85;;
20462;SDS011;10390;53.566;9.980;2023-02-19T15:22:21;17.85;;;4.97;;
20462;SDS011;10390;53.566;9.980;2023-02-19T15:24:49;16.35;;;4.38;;
20462;SDS011;10390;53.566;9.980;2023-02-19T15:27:16;16.83;;;4.90;;
20462;SDS011;10390;53.566;9.980;2023-02-19T15:29:44;22.45;;;4.75;;
20462;SDS011;10390;53.566;9.980;2023-02-19T15:32:22;16.45;;;4.88;;
20462;SDS011;10390;53.566;9.980;2023-02-19T15:34:57;16.88;;;4.38;;
20462;SDS011;10390;53.566;9.980;2023-02-19T15:37:24;16.13;;;4.90;;
20462;SDS011;10390;53.566;9.980;2023-02-19T15:39:52;19.90;;;4.65;;
20462;SDS011;10390;53.566;9.980;2023-02-19T15:42:22;19.90;;;4.57;;
20462;SDS011;10390;53.566;9.980;2023-02-19T15:47:32;14.80;;;4.80;;
20462;SDS011;10390;53.566;9.980;2023-02-19T15:58:19;18.38;;;5.13;;
20462;SDS011;10390;53.566;9.980;2023-02-19T16:00:57;13.23;;;4.97;;
20462;SDS011;10390;53.566;9.980;2023-02-19T16:03:25;16.67;;;4.13;;
20462;SDS011;10390;53.566;9.980;2023-02-19T16:06:09;15.70;;;4.68;;
20462;SDS011;10390;53.566;9.980;2023-02-19T16:09:02;13.30;;;4.22;;
20462;SDS011;10390;53.566;9.980;2023-02-19T16:11:29;14.80;;;4.65;;
20462;SDS011;10390;53.566;9.980;2023-02-19T16:16:47;13.85;;;4.70;;
20462;SDS011;10390;53.566;9.980;2023-02-19T16:19:21;12.82;;;4.10;;
20462;SDS011;10390;53.566;9.980;2023-02-19T16:21:49;12.40;;;4.07;;
20462;SDS011;10390;53.566;9.980;2023-02-19T16:24:17;11.55;;;4.20;;
20462;SDS011;10390;53.566;9.980;2023-02-19T16:26:54;12.75;;;4.40;;
20462;SDS011;10390;53.566;9.980;2023-02-19T16:29:21;14.25;;;3.97;;
20462;SDS011;10390;53.566;9.980;2023-02-19T16:31:56;10.07;;;4.32;;
20462;SDS011;10390;53.566;9.980;2023-02-19T16:45:19;12.57;;;3.92;;
20462;SDS011;10390;53.566;9.980;2023-02-19T16:47:45;12.02;;;4.00;;
20462;SDS011;10390;53.566;9.980;2023-02-19T16:50:22;13.45;;;4.25;;
20462;SDS011;10390;53.566;9.980;2023-02-19T16:52:49;12.65;;;4.15;;
20462;SDS011;10390;53.566;9.980;2023-02-19T16:55:15;10.68;;;4.28;;
20462;SDS011;10390;53.566;9.980;2023-02-19T16:57:41;13.25;;;4.40;;
20462;SDS011;10390;53.566;9.980;2023-02-19T17:00:06;11.95;;;3.90;;
20462;SDS011;10390;53.566;9.980;2023-02-19T17:02:32;10.73;;;4.55;;
20462;SDS011;10390;53.566;9.980;2023-02-19T17:04:58;15.52;;;4.60;;
20462;SDS011;10390;53.566;9.980;2023-02-19T17:07:24;10.32;;;4.35;;
20462;SDS011;10390;53.566;9.980;2023-02-19T17:09:51;9.38;;;4.30;;
20462;SDS011;10390;53.566;9.980;2023-02-19T17:12:17;12.48;;;4.13;;
20462;SDS011;10390;53.566;9.980;2023-02-19T17:14:43;12.63;;;4.35;;
20462;SDS011;10390;53.566;9.980;2023-02-19T17:17:09;11.77;;;4.20;;
20462;SDS011;10390;53.566;9.980;2023-02-19T17:19:35;9.48;;;4.00;;
20462;SDS011;10390;53.566;9.980;2023-02-19T17:22:00;12.15;;;4.65;;
20462;SDS011;10390;53.566;9.980;2023-02-19T17:24:26;8.93;;;3.90;;
20462;SDS011;10390;53.566;9.980;2023-02-19T17:26:52;9.80;;;4.05;;
20462;SDS011;10390;53.566;9.980;2023-02-19T17:29:17;11.88;;;5.00;;
20462;SDS011;10390;53.566;9.980;2023-02-19T17:31:44;13.57;;;4.75;;
20462;SDS011;10390;53.566;9.980;2023-02-19T17:34:11;12.93;;;4.68;;
20462;SDS011;10390;53.566;9.980;2023-02-19T17:36:36;12.73;;;4.10;;
20462;SDS011;10390;53.566;9.980;2023-02-19T17:39:03;15.55;;;4.30;;
20462;SDS011;10390;53.566;9.980;2023-02-19T17:41:31;10.50;;;4.45;;
20462;SDS011;10390;53.566;9.980;2023-02-19T17:43:57;9.88;;;4.20;;
20462;SDS011;10390;53.566;9.980;2023-02-19T17:46:23;13.77;;;4.50;;
20462;SDS011;10390;53.566;9.980;2023-02-19T17:48:50;9.63;;;4.47;;
20462;SDS011;10390;53.566;9.980;2023-02-19T17:51:16;12.57;;;4.82;;
20462;SDS011;10390;53.566;9.980;2023-02-19T17:53:42;11.85;;;4.50;;
20462;SDS011;10390;53.566;9.980;2023-02-19T17:56:10;13.82;;;4.50;;